VABP/BHO METAR and TAF weather

Enter ICAO airport designator
Station Type Date Time Source
VABP METAR 2020/04/10 18:00 UTC NOAA

VABP 101800Z 02004KT 6000 FEW025 26/09 Q1015 NOSIG


Station Type Date Time Source
VABP Decoded METAR 2020/04/10 18:00 UTC NOAA

Bhopal / Bairagarh, India (VABP) 23-17N 077-21E 523M
Apr 10, 2020 - 02:00 PM EDT / 2020.04.10 1800 UTC
Wind: from the NNE (020 degrees) at 5 MPH (4 KT):0
Visibility: 3 mile(s):0
Sky conditions: mostly clear
Temperature: 78 F (26 C)
Dew Point: 48 F (9 C)
Relative Humidity: 34%
Pressure (altimeter): 29.97 in. Hg (1015 hPa)
ob: VABP 101800Z 02004KT 6000 FEW025 26/09 Q1015 NOSIG
cycle: 18

Station Type Date Time Source
VABP TAF 2020/03/26 12:00 UTC NOAA

TAF VABP 261100Z 2612/2718 14005KT 6000 SCT030 BKN100
BECMG 2615/2617 22005KT FEW030 SCT100
BECMG 2618/2620 05005KT FEW030 BKN100
BECMG 2703/2705 12005KT FEW030 SCT100
BECMG 2706/2708 14005KT 6000 SCT030 BKN100
TEMPO 2611/2613 14010G20KT 3000 -RA/TSRA FEW030CB SCT030 BKN100

Example: see airport list